sensor_id;sensor_type;location;lat;lon;timestamp;temperature;humidity
10451;DHT22;5273;51.290;6.918;2023-06-22T00:02:00;23.50;62.40
10451;DHT22;5273;51.290;6.918;2023-06-22T00:04:27;23.50;61.90
10451;DHT22;5273;51.290;6.918;2023-06-22T00:06:54;23.50;62.10
10451;DHT22;5273;51.290;6.918;2023-06-22T00:09:21;23.40;62.30
10451;DHT22;5273;51.290;6.918;2023-06-22T00:11:49;23.40;62.40
10451;DHT22;5273;51.290;6.918;2023-06-22T00:14:16;23.40;62.60
10451;DHT22;5273;51.290;6.918;2023-06-22T00:16:43;23.40;62.70
10451;DHT22;5273;51.290;6.918;2023-06-22T00:19:10;23.40;62.70
10451;DHT22;5273;51.290;6.918;2023-06-22T00:21:37;23.40;63.20
10451;DHT22;5273;51.290;6.918;2023-06-22T00:24:05;23.30;63.40
10451;DHT22;5273;51.290;6.918;2023-06-22T00:26:32;23.30;63.80
10451;DHT22;5273;51.290;6.918;2023-06-22T00:29:00;23.20;64.20
10451;DHT22;5273;51.290;6.918;2023-06-22T00:31:27;23.20;64.50
10451;DHT22;5273;51.290;6.918;2023-06-22T00:33:54;23.20;64.90
10451;DHT22;5273;51.290;6.918;2023-06-22T00:36:21;23.10;65.20
10451;DHT22;5273;51.290;6.918;2023-06-22T00:38:50;23.10;65.80
10451;DHT22;5273;51.290;6.918;2023-06-22T00:41:17;23.00;66.20
10451;DHT22;5273;51.290;6.918;2023-06-22T00:43:44;23.10;66.80
10451;DHT22;5273;51.290;6.918;2023-06-22T00:46:13;23.00;67.20
10451;DHT22;5273;51.290;6.918;2023-06-22T00:48:40;23.00;67.80
10451;DHT22;5273;51.290;6.918;2023-06-22T00:51:07;23.00;68.30
10451;DHT22;5273;51.290;6.918;2023-06-22T00:53:34;22.90;68.70
10451;DHT22;5273;51.290;6.918;2023-06-22T00:56:02;22.90;69.30
10451;DHT22;5273;51.290;6.918;2023-06-22T00:58:30;22.80;70.20
10451;DHT22;5273;51.290;6.918;2023-06-22T01:00:56;22.70;70.60
10451;DHT22;5273;51.290;6.918;2023-06-22T01:03:25;22.80;71.00
10451;DHT22;5273;51.290;6.918;2023-06-22T01:05:52;22.70;71.30
10451;DHT22;5273;51.290;6.918;2023-06-22T01:08:31;22.70;71.90
10451;DHT22;5273;51.290;6.918;2023-06-22T01:11:08;22.70;72.40
10451;DHT22;5273;51.290;6.918;2023-06-22T01:13:37;22.60;72.80
10451;DHT22;5273;51.290;6.918;2023-06-22T01:16:11;22.60;73.10
10451;DHT22;5273;51.290;6.918;2023-06-22T01:18:43;22.60;73.40
10451;DHT22;5273;51.290;6.918;2023-06-22T01:21:14;22.60;73.50
10451;DHT22;5273;51.290;6.918;2023-06-22T01:23:51;22.60;73.70
10451;DHT22;5273;51.290;6.918;2023-06-22T01:26:25;22.60;73.80
10451;DHT22;5273;51.290;6.918;2023-06-22T01:28:57;22.60;74.30
10451;DHT22;5273;51.290;6.918;2023-06-22T01:31:26;22.60;74.30
10451;DHT22;5273;51.290;6.918;2023-06-22T01:33:58;22.60;74.40
10451;DHT22;5273;51.290;6.918;2023-06-22T01:36:26;22.60;74.90
10451;DHT22;5273;51.290;6.918;2023-06-22T01:38:53;22.60;75.20
10451;DHT22;5273;51.290;6.918;2023-06-22T01:41:23;22.50;75.30
10451;DHT22;5273;51.290;6.918;2023-06-22T01:43:52;22.50;75.50
10451;DHT22;5273;51.290;6.918;2023-06-22T01:46:21;22.50;75.70
10451;DHT22;5273;51.290;6.918;2023-06-22T01:48:48;22.30;75.90
10451;DHT22;5273;51.290;6.918;2023-06-22T01:51:16;22.30;76.30
10451;DHT22;5273;51.290;6.918;2023-06-22T01:53:43;22.30;76.70
10451;DHT22;5273;51.290;6.918;2023-06-22T01:56:11;22.20;77.10
10451;DHT22;5273;51.290;6.918;2023-06-22T01:58:45;22.10;77.20
10451;DHT22;5273;51.290;6.918;2023-06-22T02:01:19;22.20;77.60
10451;DHT22;5273;51.290;6.918;2023-06-22T02:03:55;22.10;77.80
10451;DHT22;5273;51.290;6.918;2023-06-22T02:06:29;22.00;78.10
10451;DHT22;5273;51.290;6.918;2023-06-22T02:09:02;22.00;79.30
10451;DHT22;5273;51.290;6.918;2023-06-22T02:11:31;22.00;78.60
10451;DHT22;5273;51.290;6.918;2023-06-22T02:13:58;22.00;78.90
10451;DHT22;5273;51.290;6.918;2023-06-22T02:16:25;22.00;79.00
10451;DHT22;5273;51.290;6.918;2023-06-22T02:18:56;22.00;79.40
10451;DHT22;5273;51.290;6.918;2023-06-22T02:21:28;21.80;79.30
10451;DHT22;5273;51.290;6.918;2023-06-22T02:23:55;21.80;79.90
10451;DHT22;5273;51.290;6.918;2023-06-22T02:26:22;21.70;79.90
10451;DHT22;5273;51.290;6.918;2023-06-22T02:28:50;21.80;80.10
10451;DHT22;5273;51.290;6.918;2023-06-22T02:31:17;21.70;80.50
10451;DHT22;5273;51.290;6.918;2023-06-22T02:33:44;21.70;80.50
10451;DHT22;5273;51.290;6.918;2023-06-22T02:36:12;21.70;80.50
10451;DHT22;5273;51.290;6.918;2023-06-22T02:38:40;21.70;80.60
10451;DHT22;5273;51.290;6.918;2023-06-22T02:41:14;21.70;80.90
10451;DHT22;5273;51.290;6.918;2023-06-22T02:43:44;21.70;80.50
10451;DHT22;5273;51.290;6.918;2023-06-22T02:46:11;21.70;80.50
10451;DHT22;5273;51.290;6.918;2023-06-22T02:48:38;21.70;80.60
10451;DHT22;5273;51.290;6.918;2023-06-22T02:51:05;21.70;80.50
10451;DHT22;5273;51.290;6.918;2023-06-22T02:53:34;21.70;80.40
10451;DHT22;5273;51.290;6.918;2023-06-22T02:56:01;21.70;81.00
10451;DHT22;5273;51.290;6.918;2023-06-22T02:58:30;21.60;81.00
10451;DHT22;5273;51.290;6.918;2023-06-22T03:00:58;21.60;80.90
10451;DHT22;5273;51.290;6.918;2023-06-22T03:03:30;21.60;80.70
10451;DHT22;5273;51.290;6.918;2023-06-22T03:05:56;21.50;80.80
10451;DHT22;5273;51.290;6.918;2023-06-22T03:08:23;21.60;80.70
10451;DHT22;5273;51.290;6.918;2023-06-22T03:10:51;21.50;80.40
10451;DHT22;5273;51.290;6.918;2023-06-22T03:13:18;21.50;80.80
10451;DHT22;5273;51.290;6.918;2023-06-22T03:15:45;21.50;80.90
10451;DHT22;5273;51.290;6.918;2023-06-22T03:18:12;21.50;80.90
10451;DHT22;5273;51.290;6.918;2023-06-22T03:20:39;21.50;80.90
10451;DHT22;5273;51.290;6.918;2023-06-22T03:23:06;21.50;81.50
10451;DHT22;5273;51.290;6.918;2023-06-22T03:25:32;21.60;81.50
10451;DHT22;5273;51.290;6.918;2023-06-22T03:28:01;21.60;81.50
10451;DHT22;5273;51.290;6.918;2023-06-22T03:30:28;21.60;81.60
10451;DHT22;5273;51.290;6.918;2023-06-22T03:32:55;21.60;81.60
10451;DHT22;5273;51.290;6.918;2023-06-22T03:35:22;21.60;81.70
10451;DHT22;5273;51.290;6.918;2023-06-22T03:37:48;21.70;81.60
10451;DHT22;5273;51.290;6.918;2023-06-22T03:40:15;21.70;81.90
10451;DHT22;5273;51.290;6.918;2023-06-22T03:42:42;21.70;82.20
10451;DHT22;5273;51.290;6.918;2023-06-22T03:45:10;21.70;81.70
10451;DHT22;5273;51.290;6.918;2023-06-22T03:47:37;21.70;82.00
10451;DHT22;5273;51.290;6.918;2023-06-22T03:50:05;21.70;82.40
10451;DHT22;5273;51.290;6.918;2023-06-22T03:52:32;21.70;81.90
10451;DHT22;5273;51.290;6.918;2023-06-22T03:54:59;21.70;82.40
10451;DHT22;5273;51.290;6.918;2023-06-22T03:57:26;21.70;82.40
10451;DHT22;5273;51.290;6.918;2023-06-22T03:59:56;21.70;82.80
10451;DHT22;5273;51.290;6.918;2023-06-22T04:02:24;21.70;82.90
10451;DHT22;5273;51.290;6.918;2023-06-22T04:04:51;21.70;83.20
10451;DHT22;5273;51.290;6.918;2023-06-22T04:07:18;21.70;83.70
10451;DHT22;5273;51.290;6.918;2023-06-22T04:09:45;21.60;84.20
10451;DHT22;5273;51.290;6.918;2023-06-22T04:12:12;21.50;84.50
10451;DHT22;5273;51.290;6.918;2023-06-22T04:14:38;21.50;84.90
10451;DHT22;5273;51.290;6.918;2023-06-22T04:17:05;21.50;85.20
10451;DHT22;5273;51.290;6.918;2023-06-22T04:19:33;21.50;85.50
10451;DHT22;5273;51.290;6.918;2023-06-22T04:22:00;21.50;85.80
10451;DHT22;5273;51.290;6.918;2023-06-22T04:24:27;21.60;85.30
10451;DHT22;5273;51.290;6.918;2023-06-22T04:26:54;21.60;84.60
10451;DHT22;5273;51.290;6.918;2023-06-22T04:29:21;21.60;84.10
10451;DHT22;5273;51.290;6.918;2023-06-22T04:31:54;21.70;84.50
10451;DHT22;5273;51.290;6.918;2023-06-22T04:34:23;21.60;84.50
10451;DHT22;5273;51.290;6.918;2023-06-22T04:36:53;21.70;84.70
10451;DHT22;5273;51.290;6.918;2023-06-22T04:39:20;21.70;85.50
10451;DHT22;5273;51.290;6.918;2023-06-22T04:41:47;21.60;85.50
10451;DHT22;5273;51.290;6.918;2023-06-22T04:44:15;21.60;85.70
10451;DHT22;5273;51.290;6.918;2023-06-22T04:46:50;21.70;86.20
10451;DHT22;5273;51.290;6.918;2023-06-22T04:49:19;21.70;87.00
10451;DHT22;5273;51.290;6.918;2023-06-22T04:51:46;21.70;87.40
10451;DHT22;5273;51.290;6.918;2023-06-22T04:54:14;21.60;87.20
10451;DHT22;5273;51.290;6.918;2023-06-22T04:56:41;21.60;87.50
10451;DHT22;5273;51.290;6.918;2023-06-22T04:59:08;21.60;88.30
10451;DHT22;5273;51.290;6.918;2023-06-22T05:01:38;21.50;89.00
10451;DHT22;5273;51.290;6.918;2023-06-22T05:04:05;21.50;90.00
10451;DHT22;5273;51.290;6.918;2023-06-22T05:06:32;21.40;90.40
10451;DHT22;5273;51.290;6.918;2023-06-22T05:08:59;21.40;90.50
10451;DHT22;5273;51.290;6.918;2023-06-22T05:11:28;21.40;91.00
10451;DHT22;5273;51.290;6.918;2023-06-22T05:13:55;21.50;90.70
10451;DHT22;5273;51.290;6.918;2023-06-22T05:16:22;21.50;90.50
10451;DHT22;5273;51.290;6.918;2023-06-22T05:18:52;21.40;90.00
10451;DHT22;5273;51.290;6.918;2023-06-22T05:21:22;21.40;90.20
10451;DHT22;5273;51.290;6.918;2023-06-22T05:23:49;21.40;90.00
10451;DHT22;5273;51.290;6.918;2023-06-22T05:26:16;21.40;90.40
10451;DHT22;5273;51.290;6.918;2023-06-22T05:28:44;21.40;89.60
10451;DHT22;5273;51.290;6.918;2023-06-22T05:31:12;21.30;90.30
10451;DHT22;5273;51.290;6.918;2023-06-22T05:33:40;21.40;90.70
10451;DHT22;5273;51.290;6.918;2023-06-22T05:36:07;21.40;91.00
10451;DHT22;5273;51.290;6.918;2023-06-22T05:38:35;21.40;91.20
10451;DHT22;5273;51.290;6.918;2023-06-22T05:41:03;21.50;90.80
10451;DHT22;5273;51.290;6.918;2023-06-22T05:43:29;21.40;91.10
10451;DHT22;5273;51.290;6.918;2023-06-22T05:45:58;21.40;91.00
10451;DHT22;5273;51.290;6.918;2023-06-22T05:48:25;21.50;91.00
10451;DHT22;5273;51.290;6.918;2023-06-22T05:50:52;21.50;90.00
10451;DHT22;5273;51.290;6.918;2023-06-22T05:53:19;21.50;88.70
10451;DHT22;5273;51.290;6.918;2023-06-22T05:55:46;21.60;89.10
10451;DHT22;5273;51.290;6.918;2023-06-22T05:58:12;21.60;88.90
10451;DHT22;5273;51.290;6.918;2023-06-22T06:00:39;21.60;88.90
10451;DHT22;5273;51.290;6.918;2023-06-22T06:03:08;21.60;87.80
10451;DHT22;5273;51.290;6.918;2023-06-22T06:05:35;21.60;88.70
10451;DHT22;5273;51.290;6.918;2023-06-22T06:08:04;21.70;88.20
10451;DHT22;5273;51.290;6.918;2023-06-22T06:10:32;21.80;88.20
10451;DHT22;5273;51.290;6.918;2023-06-22T06:12:59;21.90;87.80
10451;DHT22;5273;51.290;6.918;2023-06-22T06:15:27;22.00;87.00
10451;DHT22;5273;51.290;6.918;2023-06-22T06:17:54;22.00;87.50
10451;DHT22;5273;51.290;6.918;2023-06-22T06:20:24;22.00;87.50
10451;DHT22;5273;51.290;6.918;2023-06-22T06:22:51;22.00;87.90
10451;DHT22;5273;51.290;6.918;2023-06-22T06:25:18;22.00;88.90
10451;DHT22;5273;51.290;6.918;2023-06-22T06:27:47;22.00;89.40
10451;DHT22;5273;51.290;6.918;2023-06-22T06:30:16;22.00;89.00
10451;DHT22;5273;51.290;6.918;2023-06-22T06:32:44;22.10;89.60
10451;DHT22;5273;51.290;6.918;2023-06-22T06:35:13;22.10;90.10
10451;DHT22;5273;51.290;6.918;2023-06-22T06:37:43;22.10;89.90
10451;DHT22;5273;51.290;6.918;2023-06-22T06:40:11;22.10;90.30
10451;DHT22;5273;51.290;6.918;2023-06-22T06:42:38;22.10;90.30
10451;DHT22;5273;51.290;6.918;2023-06-22T06:45:07;22.10;90.40
10451;DHT22;5273;51.290;6.918;2023-06-22T06:47:34;22.10;91.00
10451;DHT22;5273;51.290;6.918;2023-06-22T06:50:02;22.10;91.70
10451;DHT22;5273;51.290;6.918;2023-06-22T06:52:29;22.00;92.30
10451;DHT22;5273;51.290;6.918;2023-06-22T06:54:57;21.90;93.20
10451;DHT22;5273;51.290;6.918;2023-06-22T06:57:24;21.80;94.50
10451;DHT22;5273;51.290;6.918;2023-06-22T06:59:54;21.70;95.40
10451;DHT22;5273;51.290;6.918;2023-06-22T07:02:21;21.60;95.70
10451;DHT22;5273;51.290;6.918;2023-06-22T07:04:48;21.60;96.90
10451;DHT22;5273;51.290;6.918;2023-06-22T07:07:16;21.40;97.20
10451;DHT22;5273;51.290;6.918;2023-06-22T07:09:42;21.30;98.10
10451;DHT22;5273;51.290;6.918;2023-06-22T07:12:11;21.20;99.60
10451;DHT22;5273;51.290;6.918;2023-06-22T07:14:37;21.10;99.90
10451;DHT22;5273;51.290;6.918;2023-06-22T07:17:04;21.10;99.90
10451;DHT22;5273;51.290;6.918;2023-06-22T07:19:33;21.00;99.90
10451;DHT22;5273;51.290;6.918;2023-06-22T07:22:00;21.00;99.90
10451;DHT22;5273;51.290;6.918;2023-06-22T07:24:27;20.80;99.90
10451;DHT22;5273;51.290;6.918;2023-06-22T07:26:54;20.80;99.90
10451;DHT22;5273;51.290;6.918;2023-06-22T07:29:25;20.80;99.90
10451;DHT22;5273;51.290;6.918;2023-06-22T07:31:53;20.70;99.90
10451;DHT22;5273;51.290;6.918;2023-06-22T07:34:21;20.60;99.90
10451;DHT22;5273;51.290;6.918;2023-06-22T07:36:48;20.60;99.90
10451;DHT22;5273;51.290;6.918;2023-06-22T07:39:15;20.50;99.90
10451;DHT22;5273;51.290;6.918;2023-06-22T07:41:42;20.50;99.90
10451;DHT22;5273;51.290;6.918;2023-06-22T07:44:09;20.60;99.90
10451;DHT22;5273;51.290;6.918;2023-06-22T07:46:37;20.70;99.90
10451;DHT22;5273;51.290;6.918;2023-06-22T07:49:04;20.70;99.90
10451;DHT22;5273;51.290;6.918;2023-06-22T07:51:31;21.00;99.90
10451;DHT22;5273;51.290;6.918;2023-06-22T07:53:57;21.10;99.90
10451;DHT22;5273;51.290;6.918;2023-06-22T07:56:24;21.10;99.90
10451;DHT22;5273;51.290;6.918;2023-06-22T07:58:51;21.30;99.90
10451;DHT22;5273;51.290;6.918;2023-06-22T08:01:18;21.50;99.90
10451;DHT22;5273;51.290;6.918;2023-06-22T08:03:48;21.90;99.90
10451;DHT22;5273;51.290;6.918;2023-06-22T08:06:14;22.40;99.90
10451;DHT22;5273;51.290;6.918;2023-06-22T08:08:41;22.80;99.90
10451;DHT22;5273;51.290;6.918;2023-06-22T08:11:09;23.30;99.90
10451;DHT22;5273;51.290;6.918;2023-06-22T08:13:35;23.80;99.90
10451;DHT22;5273;51.290;6.918;2023-06-22T08:16:03;24.40;99.90
10451;DHT22;5273;51.290;6.918;2023-06-22T08:18:30;25.30;98.50
10451;DHT22;5273;51.290;6.918;2023-06-22T08:20:59;25.80;96.90
10451;DHT22;5273;51.290;6.918;2023-06-22T08:23:26;26.40;96.00
10451;DHT22;5273;51.290;6.918;2023-06-22T08:25:53;26.90;94.90
10451;DHT22;5273;51.290;6.918;2023-06-22T08:28:20;27.50;93.20
10451;DHT22;5273;51.290;6.918;2023-06-22T08:30:46;28.00;92.40
10451;DHT22;5273;51.290;6.918;2023-06-22T08:33:13;28.30;92.20
10451;DHT22;5273;51.290;6.918;2023-06-22T08:35:40;28.80;91.10
10451;DHT22;5273;51.290;6.918;2023-06-22T08:38:08;29.50;89.80
10451;DHT22;5273;51.290;6.918;2023-06-22T08:40:35;29.90;86.70
10451;DHT22;5273;51.290;6.918;2023-06-22T08:43:01;29.80;84.10
10451;DHT22;5273;51.290;6.918;2023-06-22T08:45:28;29.20;86.50
10451;DHT22;5273;51.290;6.918;2023-06-22T08:47:55;29.10;86.60
10451;DHT22;5273;51.290;6.918;2023-06-22T08:50:22;29.20;85.80
10451;DHT22;5273;51.290;6.918;2023-06-22T08:52:49;29.40;88.20
10451;DHT22;5273;51.290;6.918;2023-06-22T08:55:17;29.40;84.50
10451;DHT22;5273;51.290;6.918;2023-06-22T08:57:44;29.30;84.10
10451;DHT22;5273;51.290;6.918;2023-06-22T09:00:11;29.70;84.50
10451;DHT22;5273;51.290;6.918;2023-06-22T09:02:42;30.20;79.50
10451;DHT22;5273;51.290;6.918;2023-06-22T09:05:09;30.80;78.60
10451;DHT22;5273;51.290;6.918;2023-06-22T09:07:36;30.80;75.80
10451;DHT22;5273;51.290;6.918;2023-06-22T09:10:04;30.50;75.50
10451;DHT22;5273;51.290;6.918;2023-06-22T09:12:33;30.30;76.80
10451;DHT22;5273;51.290;6.918;2023-06-22T09:15:00;30.70;75.70
10451;DHT22;5273;51.290;6.918;2023-06-22T09:17:28;31.50;75.10
10451;DHT22;5273;51.290;6.918;2023-06-22T09:19:55;32.10;72.10
10451;DHT22;5273;51.290;6.918;2023-06-22T09:22:23;33.10;70.80
10451;DHT22;5273;51.290;6.918;2023-06-22T09:24:54;33.60;66.60
10451;DHT22;5273;51.290;6.918;2023-06-22T09:27:21;33.80;63.40
10451;DHT22;5273;51.290;6.918;2023-06-22T09:29:50;33.40;65.90
10451;DHT22;5273;51.290;6.918;2023-06-22T09:32:17;33.20;64.60
10451;DHT22;5273;51.290;6.918;2023-06-22T09:34:43;32.90;65.50
10451;DHT22;5273;51.290;6.918;2023-06-22T09:37:10;32.50;66.80
10451;DHT22;5273;51.290;6.918;2023-06-22T09:39:37;32.10;67.50
10451;DHT22;5273;51.290;6.918;2023-06-22T09:42:04;31.90;67.90
10451;DHT22;5273;51.290;6.918;2023-06-22T09:44:32;31.60;68.70
10451;DHT22;5273;51.290;6.918;2023-06-22T09:47:00;31.40;70.00
10451;DHT22;5273;51.290;6.918;2023-06-22T09:49:27;31.40;72.00
10451;DHT22;5273;51.290;6.918;2023-06-22T09:51:53;31.40;69.60
10451;DHT22;5273;51.290;6.918;2023-06-22T09:54:20;31.30;70.00
10451;DHT22;5273;51.290;6.918;2023-06-22T09:56:47;31.50;70.90
10451;DHT22;5273;51.290;6.918;2023-06-22T09:59:14;31.90;71.50
10451;DHT22;5273;51.290;6.918;2023-06-22T10:01:41;32.30;71.10
10451;DHT22;5273;51.290;6.918;2023-06-22T10:04:09;32.40;68.70
10451;DHT22;5273;51.290;6.918;2023-06-22T10:06:35;32.80;67.50
10451;DHT22;5273;51.290;6.918;2023-06-22T10:09:06;33.00;64.60
10451;DHT22;5273;51.290;6.918;2023-06-22T10:11:33;33.00;66.30
10451;DHT22;5273;51.290;6.918;2023-06-22T10:14:00;33.10;67.40
10451;DHT22;5273;51.290;6.918;2023-06-22T10:16:30;33.00;68.90
10451;DHT22;5273;51.290;6.918;2023-06-22T10:18:57;33.10;69.20
10451;DHT22;5273;51.290;6.918;2023-06-22T10:21:25;33.20;69.90
10451;DHT22;5273;51.290;6.918;2023-06-22T10:23:54;33.40;69.00
10451;DHT22;5273;51.290;6.918;2023-06-22T10:26:20;33.80;64.60
10451;DHT22;5273;51.290;6.918;2023-06-22T10:28:47;33.70;66.60
10451;DHT22;5273;51.290;6.918;2023-06-22T10:31:14;33.30;65.90
10451;DHT22;5273;51.290;6.918;2023-06-22T10:33:42;32.90;65.90
10451;DHT22;5273;51.290;6.918;2023-06-22T10:36:09;32.50;65.60
10451;DHT22;5273;51.290;6.918;2023-06-22T10:38:37;31.90;68.00
10451;DHT22;5273;51.290;6.918;2023-06-22T10:41:04;31.40;70.30
10451;DHT22;5273;51.290;6.918;2023-06-22T10:43:31;31.00;70.00
10451;DHT22;5273;51.290;6.918;2023-06-22T10:45:58;30.50;71.40
10451;DHT22;5273;51.290;6.918;2023-06-22T10:48:25;30.10;73.50
10451;DHT22;5273;51.290;6.918;2023-06-22T10:50:52;29.80;74.90
10451;DHT22;5273;51.290;6.918;2023-06-22T10:53:20;29.40;75.50
10451;DHT22;5273;51.290;6.918;2023-06-22T10:55:48;29.10;78.30
10451;DHT22;5273;51.290;6.918;2023-06-22T10:58:15;28.80;81.10
10451;DHT22;5273;51.290;6.918;2023-06-22T11:00:41;28.70;84.50
10451;DHT22;5273;51.290;6.918;2023-06-22T11:03:08;28.40;87.40
10451;DHT22;5273;51.290;6.918;2023-06-22T11:05:35;28.30;88.00
10451;DHT22;5273;51.290;6.918;2023-06-22T11:08:02;28.00;90.30
10451;DHT22;5273;51.290;6.918;2023-06-22T11:10:29;27.80;91.50
10451;DHT22;5273;51.290;6.918;2023-06-22T11:12:57;27.70;92.20
10451;DHT22;5273;51.290;6.918;2023-06-22T11:15:24;27.50;92.50
10451;DHT22;5273;51.290;6.918;2023-06-22T11:17:51;27.40;92.70
10451;DHT22;5273;51.290;6.918;2023-06-22T11:20:17;27.30;93.60
10451;DHT22;5273;51.290;6.918;2023-06-22T11:22:45;27.20;95.00
10451;DHT22;5273;51.290;6.918;2023-06-22T11:25:12;27.00;95.70
10451;DHT22;5273;51.290;6.918;2023-06-22T11:27:39;26.90;96.10
10451;DHT22;5273;51.290;6.918;2023-06-22T11:30:08;26.60;97.20
10451;DHT22;5273;51.290;6.918;2023-06-22T11:32:35;26.40;97.90
10451;DHT22;5273;51.290;6.918;2023-06-22T11:35:02;26.30;98.40
10451;DHT22;5273;51.290;6.918;2023-06-22T11:37:29;26.10;99.50
10451;DHT22;5273;51.290;6.918;2023-06-22T11:39:56;25.90;99.90
10451;DHT22;5273;51.290;6.918;2023-06-22T11:42:23;25.70;99.90
10451;DHT22;5273;51.290;6.918;2023-06-22T11:44:50;25.70;99.90
10451;DHT22;5273;51.290;6.918;2023-06-22T11:47:19;25.60;99.90
10451;DHT22;5273;51.290;6.918;2023-06-22T11:49:45;25.60;99.90
10451;DHT22;5273;51.290;6.918;2023-06-22T11:52:12;25.50;99.90
10451;DHT22;5273;51.290;6.918;2023-06-22T11:54:39;25.50;99.90
10451;DHT22;5273;51.290;6.918;2023-06-22T11:57:06;25.60;99.90
10451;DHT22;5273;51.290;6.918;2023-06-22T11:59:33;25.60;99.90
10451;DHT22;5273;51.290;6.918;2023-06-22T12:02:00;25.60;99.90
10451;DHT22;5273;51.290;6.918;2023-06-22T12:04:28;25.60;99.90
10451;DHT22;5273;51.290;6.918;2023-06-22T12:06:55;25.60;99.90
10451;DHT22;5273;51.290;6.918;2023-06-22T12:09:22;25.70;99.90
10451;DHT22;5273;51.290;6.918;2023-06-22T12:11:48;25.60;99.90
10451;DHT22;5273;51.290;6.918;2023-06-22T12:14:15;25.50;99.90
10451;DHT22;5273;51.290;6.918;2023-06-22T12:16:42;25.20;99.90
10451;DHT22;5273;51.290;6.918;2023-06-22T12:19:10;25.00;99.90
10451;DHT22;5273;51.290;6.918;2023-06-22T12:21:38;24.80;99.90
10451;DHT22;5273;51.290;6.918;2023-06-22T12:24:06;24.70;99.90
10451;DHT22;5273;51.290;6.918;2023-06-22T12:26:33;24.50;99.90
10451;DHT22;5273;51.290;6.918;2023-06-22T12:28:59;24.30;99.90
10451;DHT22;5273;51.290;6.918;2023-06-22T12:31:26;24.20;99.90
10451;DHT22;5273;51.290;6.918;2023-06-22T12:33:53;24.10;99.90
10451;DHT22;5273;51.290;6.918;2023-06-22T12:36:20;24.00;99.90
10451;DHT22;5273;51.290;6.918;2023-06-22T12:38:48;24.00;99.90
10451;DHT22;5273;51.290;6.918;2023-06-22T12:41:15;23.90;99.90
10451;DHT22;5273;51.290;6.918;2023-06-22T12:43:41;24.00;99.90
10451;DHT22;5273;51.290;6.918;2023-06-22T12:46:08;24.10;99.90
10451;DHT22;5273;51.290;6.918;2023-06-22T12:48:35;24.30;99.90
10451;DHT22;5273;51.290;6.918;2023-06-22T12:51:07;24.50;99.90
10451;DHT22;5273;51.290;6.918;2023-06-22T12:53:34;24.50;99.90
10451;DHT22;5273;51.290;6.918;2023-06-22T12:56:02;24.60;99.90
10451;DHT22;5273;51.290;6.918;2023-06-22T12:58:29;24.70;99.90
10451;DHT22;5273;51.290;6.918;2023-06-22T13:00:56;24.80;99.90
10451;DHT22;5273;51.290;6.918;2023-06-22T13:03:22;24.90;99.90
10451;DHT22;5273;51.290;6.918;2023-06-22T13:05:51;25.00;99.90
10451;DHT22;5273;51.290;6.918;2023-06-22T13:08:18;25.10;99.90
10451;DHT22;5273;51.290;6.918;2023-06-22T13:10:44;25.20;99.90
10451;DHT22;5273;51.290;6.918;2023-06-22T13:13:13;25.20;99.90
10451;DHT22;5273;51.290;6.918;2023-06-22T13:15:39;25.00;99.90
10451;DHT22;5273;51.290;6.918;2023-06-22T13:18:06;24.80;99.90
10451;DHT22;5273;51.290;6.918;2023-06-22T13:20:34;24.70;99.90
10451;DHT22;5273;51.290;6.918;2023-06-22T13:23:00;24.70;99.90
10451;DHT22;5273;51.290;6.918;2023-06-22T13:25:27;24.70;99.90
10451;DHT22;5273;51.290;6.918;2023-06-22T13:27:54;24.80;99.90
10451;DHT22;5273;51.290;6.918;2023-06-22T13:30:22;24.80;99.90
10451;DHT22;5273;51.290;6.918;2023-06-22T13:32:49;24.80;99.90
10451;DHT22;5273;51.290;6.918;2023-06-22T13:35:15;25.00;99.90
10451;DHT22;5273;51.290;6.918;2023-06-22T13:37:42;25.20;99.90
10451;DHT22;5273;51.290;6.918;2023-06-22T13:40:09;25.30;99.90
10451;DHT22;5273;51.290;6.918;2023-06-22T13:42:36;25.30;99.90
10451;DHT22;5273;51.290;6.918;2023-06-22T13:45:04;25.20;99.90
10451;DHT22;5273;51.290;6.918;2023-06-22T13:47:32;25.20;99.90
10451;DHT22;5273;51.290;6.918;2023-06-22T13:49:59;25.10;99.90
10451;DHT22;5273;51.290;6.918;2023-06-22T13:52:26;25.10;99.90
10451;DHT22;5273;51.290;6.918;2023-06-22T13:54:53;25.20;99.90
10451;DHT22;5273;51.290;6.918;2023-06-22T13:57:20;25.20;99.90
10451;DHT22;5273;51.290;6.918;2023-06-22T13:59:47;25.30;99.90
10451;DHT22;5273;51.290;6.918;2023-06-22T14:02:13;25.30;99.90
10451;DHT22;5273;51.290;6.918;2023-06-22T14:04:41;25.40;99.90
10451;DHT22;5273;51.290;6.918;2023-06-22T14:07:08;25.40;99.90
10451;DHT22;5273;51.290;6.918;2023-06-22T14:09:35;25.40;99.90
10451;DHT22;5273;51.290;6.918;2023-06-22T14:12:06;25.40;99.90
10451;DHT22;5273;51.290;6.918;2023-06-22T14:14:32;25.40;99.90
10451;DHT22;5273;51.290;6.918;2023-06-22T14:16:59;25.40;99.90
10451;DHT22;5273;51.290;6.918;2023-06-22T14:19:26;25.50;99.90
10451;DHT22;5273;51.290;6.918;2023-06-22T14:21:54;25.60;99.90
10451;DHT22;5273;51.290;6.918;2023-06-22T14:24:22;25.70;99.90
10451;DHT22;5273;51.290;6.918;2023-06-22T14:26:49;25.70;99.90
10451;DHT22;5273;51.290;6.918;2023-06-22T14:29:16;25.70;99.90
10451;DHT22;5273;51.290;6.918;2023-06-22T14:31:44;25.80;99.90
10451;DHT22;5273;51.290;6.918;2023-06-22T14:34:11;25.80;99.90
10451;DHT22;5273;51.290;6.918;2023-06-22T14:36:38;25.80;99.90
10451;DHT22;5273;51.290;6.918;2023-06-22T14:39:06;25.70;99.90
10451;DHT22;5273;51.290;6.918;2023-06-22T14:41:33;25.60;99.90
10451;DHT22;5273;51.290;6.918;2023-06-22T14:44:00;25.50;99.90
10451;DHT22;5273;51.290;6.918;2023-06-22T14:46:27;25.50;99.90
10451;DHT22;5273;51.290;6.918;2023-06-22T14:48:54;25.60;99.90
10451;DHT22;5273;51.290;6.918;2023-06-22T14:51:20;25.50;99.90
10451;DHT22;5273;51.290;6.918;2023-06-22T14:53:47;25.60;99.90
10451;DHT22;5273;51.290;6.918;2023-06-22T14:56:15;25.50;99.90
10451;DHT22;5273;51.290;6.918;2023-06-22T14:58:43;25.50;99.90
10451;DHT22;5273;51.290;6.918;2023-06-22T15:01:11;25.40;99.90
10451;DHT22;5273;51.290;6.918;2023-06-22T15:03:38;25.30;99.90
10451;DHT22;5273;51.290;6.918;2023-06-22T15:06:05;25.20;99.90
10451;DHT22;5273;51.290;6.918;2023-06-22T15:08:33;25.10;99.90
10451;DHT22;5273;51.290;6.918;2023-06-22T15:11:00;25.00;99.90
10451;DHT22;5273;51.290;6.918;2023-06-22T15:13:30;25.00;99.90
10451;DHT22;5273;51.290;6.918;2023-06-22T15:15:59;24.90;99.90
10451;DHT22;5273;51.290;6.918;2023-06-22T15:18:26;25.00;99.90
10451;DHT22;5273;51.290;6.918;2023-06-22T15:20:53;25.10;99.90
10451;DHT22;5273;51.290;6.918;2023-06-22T15:23:19;25.20;99.90
10451;DHT22;5273;51.290;6.918;2023-06-22T15:25:47;25.20;99.90
10451;DHT22;5273;51.290;6.918;2023-06-22T15:28:14;25.10;99.90
10451;DHT22;5273;51.290;6.918;2023-06-22T15:30:42;25.10;99.90
10451;DHT22;5273;51.290;6.918;2023-06-22T15:33:09;25.10;99.90
10451;DHT22;5273;51.290;6.918;2023-06-22T15:35:36;25.10;99.90
10451;DHT22;5273;51.290;6.918;2023-06-22T15:38:03;24.70;99.90
10451;DHT22;5273;51.290;6.918;2023-06-22T15:40:30;24.50;99.90
10451;DHT22;5273;51.290;6.918;2023-06-22T15:42:56;24.20;99.90
10451;DHT22;5273;51.290;6.918;2023-06-22T15:45:24;24.00;99.90
10451;DHT22;5273;51.290;6.918;2023-06-22T15:47:52;23.80;99.90